Round Rock, TX (78665)

11:45 PM CDT on August 20, 2014 (GMT -0500)
Round Rock West | Change Station
CLOSE
Current Station
Personal Weather Station
Location: Round Rock, TX
Elevation: 781 ft
Nearby Weather Stations

Elev 781 ft 30.50 °N, 97.69 °W | Updated 43 seconds ago

Clear
Clear
82.8 °F
Feels Like 88 °F
N
3.0
Wind Variable Wind from SE
Gusts 4.0 mph

Today
High -- | Low -- °F
--% Chance of Precip.
Yesterday
High -- | Low -- °F
Precip. -- in
7:00 AM 8:07 PM
Waning Crescent, 17% visible
Pressure 30.00 in
Visibility 10.0 miles
Clouds Clear
Heat Index 88 °F
Dew Point 72 °F
Humidity 70%
Rainfall 0.00 in
Snow Depth Not available.
UV 0 out of 12
Pollen 5.90 out of 12
Ozone Good
PM2.5 Moderate
Flu Activity Not available.
METAR KGTU 210435Z 16016G21KT 120V180 10SM CLR 29/22 A3000 RMK AO1

More Conditions Fewer Conditions

Pressure 30.00 in
Visibility 10.0 miles
Clouds Clear
Heat Index 88 °F
Dew Point 72 °F
Humidity 70%
Rainfall 0.00 in
Snow Depth Not available.
UV 0 out of 12
Pollen 5.90 out of 12
Ozone Good
PM2.5 Moderate
Flu Activity Not available.
METAR KGTU 210435Z 16016G21KT 120V180 10SM CLR 29/22 A3000 RMK AO1

More Conditions Fewer Conditions

10-Day Weather Forecast

Almanac

Astronomy

Aug. 20, 2014 Rise Set
Actual Time 7:00 AM CDT 8:07 PM CDT
Civil Twilight 6:35 AM CDT 8:32 PM CDT
Nautical Twilight 6:05 AM CDT 9:01 PM CDT
Astronomical Twilight 5:35 AM CDT 9:32 PM CDT
Moon 2:48 AM CDT (8/20) 4:46 PM CDT (8/20)
Length of Visible Light 13h 56m
Length of Day
13h 06m
Tomorrow will be 1m 41s shorter.
Waning Crescent, 17% of the Moon is Illuminated
Aug 21
Waning Crescent
Aug 25
New
Sep 2
First Quarter
Sep 8
Full
Sep 15
Last Quarter

Yesterday's Extremes

State Highs State Lows

Community

WunderPhotos

Upload Photos

1,745,856 photos uploaded!

Nearby

Air Quality

  Air Quality AQ Index Pollutant
Yesterday Moderate
PM2.5
Yesterday Good
OZONE
Current Moderate
PM2.5
Current Good
OZONE
Wednesday Good
PM10
Wednesday Good
OZONE
Thursday Good
PM10
Thursday Good
OZONE
Friday Good
PM10
Friday Good
OZONE
Saturday Good
PM10
Saturday Good
OZONE

Snow Depth

Station Depth Elevation
No new snow has been reported.

Earthquake Activity

City Distance Mag. Time & Date
No recent earthquake activity has been reported nearby.
Minimum magnitude displayed is 2.5.

Coastal Water Temperatures

Place Temperature
No Stations Reporting

Nearby Weather Stations